sensor_id;sensor_type;location;lat;lon;timestamp;P1;durP1;ratioP1;P2;durP2;ratioP2
13386;SDS011;6763;48.524;9.044;2023-01-01T00:01:10;210.70;;;111.22;;
13386;SDS011;6763;48.524;9.044;2023-01-01T00:03:36;221.85;;;117.38;;
13386;SDS011;6763;48.524;9.044;2023-01-01T00:06:05;229.70;;;118.25;;
13386;SDS011;6763;48.524;9.044;2023-01-01T00:08:35;221.50;;;116.75;;
13386;SDS011;6763;48.524;9.044;2023-01-01T00:11:01;224.07;;;118.38;;
13386;SDS011;6763;48.524;9.044;2023-01-01T00:13:27;254.23;;;129.65;;
13386;SDS011;6763;48.524;9.044;2023-01-01T00:15:53;260.33;;;132.00;;
13386;SDS011;6763;48.524;9.044;2023-01-01T00:18:19;230.30;;;121.18;;
13386;SDS011;6763;48.524;9.044;2023-01-01T00:20:44;240.73;;;124.88;;
13386;SDS011;6763;48.524;9.044;2023-01-01T00:23:10;242.45;;;123.47;;
13386;SDS011;6763;48.524;9.044;2023-01-01T00:25:35;198.77;;;106.63;;
13386;SDS011;6763;48.524;9.044;2023-01-01T00:28:00;223.60;;;108.75;;
13386;SDS011;6763;48.524;9.044;2023-01-01T00:30:26;210.68;;;112.50;;
13386;SDS011;6763;48.524;9.044;2023-01-01T00:32:52;232.18;;;124.40;;
13386;SDS011;6763;48.524;9.044;2023-01-01T00:35:17;220.32;;;116.47;;
13386;SDS011;6763;48.524;9.044;2023-01-01T00:37:43;135.48;;;68.65;;
13386;SDS011;6763;48.524;9.044;2023-01-01T00:40:09;156.38;;;79.25;;
13386;SDS011;6763;48.524;9.044;2023-01-01T00:42:34;203.50;;;105.22;;
13386;SDS011;6763;48.524;9.044;2023-01-01T00:45:04;202.73;;;104.25;;
13386;SDS011;6763;48.524;9.044;2023-01-01T00:47:30;215.77;;;108.88;;
13386;SDS011;6763;48.524;9.044;2023-01-01T00:49:55;189.60;;;105.80;;
13386;SDS011;6763;48.524;9.044;2023-01-01T00:52:20;193.20;;;102.53;;
13386;SDS011;6763;48.524;9.044;2023-01-01T00:54:46;182.82;;;103.22;;
13386;SDS011;6763;48.524;9.044;2023-01-01T00:57:11;194.75;;;97.28;;
13386;SDS011;6763;48.524;9.044;2023-01-01T00:59:36;166.68;;;86.38;;
13386;SDS011;6763;48.524;9.044;2023-01-01T01:02:02;171.57;;;91.40;;
13386;SDS011;6763;48.524;9.044;2023-01-01T01:04:27;172.63;;;91.20;;
13386;SDS011;6763;48.524;9.044;2023-01-01T01:06:53;173.13;;;90.75;;
13386;SDS011;6763;48.524;9.044;2023-01-01T01:09:18;186.25;;;94.28;;
13386;SDS011;6763;48.524;9.044;2023-01-01T01:11:43;162.85;;;91.85;;
13386;SDS011;6763;48.524;9.044;2023-01-01T01:14:09;162.85;;;82.78;;
13386;SDS011;6763;48.524;9.044;2023-01-01T01:16:34;146.35;;;80.78;;
13386;SDS011;6763;48.524;9.044;2023-01-01T01:19:00;184.27;;;91.60;;
13386;SDS011;6763;48.524;9.044;2023-01-01T01:21:29;136.23;;;69.28;;
13386;SDS011;6763;48.524;9.044;2023-01-01T01:23:59;115.97;;;63.90;;
13386;SDS011;6763;48.524;9.044;2023-01-01T01:26:35;138.15;;;64.88;;
13386;SDS011;6763;48.524;9.044;2023-01-01T01:29:00;144.98;;;78.50;;
13386;SDS011;6763;48.524;9.044;2023-01-01T01:31:28;168.55;;;84.57;;
13386;SDS011;6763;48.524;9.044;2023-01-01T01:33:55;144.55;;;80.72;;
13386;SDS011;6763;48.524;9.044;2023-01-01T01:36:21;162.55;;;84.10;;
13386;SDS011;6763;48.524;9.044;2023-01-01T01:38:47;154.32;;;83.50;;
13386;SDS011;6763;48.524;9.044;2023-01-01T01:41:13;165.65;;;87.60;;
13386;SDS011;6763;48.524;9.044;2023-01-01T01:46:06;193.77;;;93.82;;
13386;SDS011;6763;48.524;9.044;2023-01-01T01:48:38;168.75;;;90.43;;
13386;SDS011;6763;48.524;9.044;2023-01-01T01:51:06;171.20;;;93.22;;
13386;SDS011;6763;48.524;9.044;2023-01-01T01:53:34;182.40;;;89.93;;
13386;SDS011;6763;48.524;9.044;2023-01-01T01:56:06;155.57;;;84.45;;
13386;SDS011;6763;48.524;9.044;2023-01-01T01:58:35;180.02;;;87.07;;
13386;SDS011;6763;48.524;9.044;2023-01-01T02:01:01;156.32;;;75.13;;
13386;SDS011;6763;48.524;9.044;2023-01-01T02:06:02;107.22;;;57.55;;
13386;SDS011;6763;48.524;9.044;2023-01-01T02:08:28;119.10;;;58.97;;
13386;SDS011;6763;48.524;9.044;2023-01-01T02:10:54;141.20;;;71.95;;
13386;SDS011;6763;48.524;9.044;2023-01-01T02:13:19;124.97;;;65.80;;
13386;SDS011;6763;48.524;9.044;2023-01-01T02:15:50;97.30;;;53.53;;
13386;SDS011;6763;48.524;9.044;2023-01-01T02:18:23;102.78;;;56.83;;
13386;SDS011;6763;48.524;9.044;2023-01-01T02:28:53;96.95;;;51.15;;
13386;SDS011;6763;48.524;9.044;2023-01-01T02:31:24;95.75;;;53.25;;
13386;SDS011;6763;48.524;9.044;2023-01-01T02:33:55;127.43;;;64.60;;
13386;SDS011;6763;48.524;9.044;2023-01-01T02:36:25;117.70;;;58.30;;
13386;SDS011;6763;48.524;9.044;2023-01-01T02:38:53;98.90;;;55.47;;
13386;SDS011;6763;48.524;9.044;2023-01-01T02:41:29;106.72;;;54.40;;
13386;SDS011;6763;48.524;9.044;2023-01-01T02:43:58;95.07;;;43.85;;
13386;SDS011;6763;48.524;9.044;2023-01-01T02:46:23;82.43;;;41.65;;
13386;SDS011;6763;48.524;9.044;2023-01-01T02:48:55;108.90;;;50.20;;
13386;SDS011;6763;48.524;9.044;2023-01-01T02:54:06;82.40;;;43.50;;
13386;SDS011;6763;48.524;9.044;2023-01-01T02:56:34;84.20;;;46.72;;
13386;SDS011;6763;48.524;9.044;2023-01-01T02:59:13;74.38;;;42.97;;
13386;SDS011;6763;48.524;9.044;2023-01-01T03:02:09;92.10;;;43.40;;
13386;SDS011;6763;48.524;9.044;2023-01-01T03:10:18;76.60;;;41.33;;
13386;SDS011;6763;48.524;9.044;2023-01-01T03:12:55;81.72;;;40.15;;
13386;SDS011;6763;48.524;9.044;2023-01-01T03:15:36;75.25;;;40.30;;
13386;SDS011;6763;48.524;9.044;2023-01-01T03:18:14;78.00;;;40.40;;
13386;SDS011;6763;48.524;9.044;2023-01-01T03:20:46;77.78;;;40.20;;
13386;SDS011;6763;48.524;9.044;2023-01-01T03:23:17;79.28;;;40.60;;
13386;SDS011;6763;48.524;9.044;2023-01-01T03:25:46;73.07;;;37.15;;
13386;SDS011;6763;48.524;9.044;2023-01-01T03:28:19;45.25;;;28.00;;
13386;SDS011;6763;48.524;9.044;2023-01-01T03:30:49;74.18;;;38.45;;
13386;SDS011;6763;48.524;9.044;2023-01-01T03:35:47;71.95;;;36.67;;
13386;SDS011;6763;48.524;9.044;2023-01-01T03:38:15;64.18;;;32.72;;
13386;SDS011;6763;48.524;9.044;2023-01-01T03:40:44;81.47;;;39.85;;
13386;SDS011;6763;48.524;9.044;2023-01-01T03:43:13;64.85;;;36.03;;
13386;SDS011;6763;48.524;9.044;2023-01-01T03:45:44;63.97;;;35.50;;
13386;SDS011;6763;48.524;9.044;2023-01-01T03:48:14;57.75;;;32.40;;
13386;SDS011;6763;48.524;9.044;2023-01-01T03:50:56;60.60;;;33.00;;
13386;SDS011;6763;48.524;9.044;2023-01-01T03:53:35;46.58;;;29.10;;
13386;SDS011;6763;48.524;9.044;2023-01-01T03:56:26;58.70;;;29.52;;
13386;SDS011;6763;48.524;9.044;2023-01-01T03:58:57;55.38;;;31.50;;
13386;SDS011;6763;48.524;9.044;2023-01-01T04:01:30;61.92;;;32.15;;
13386;SDS011;6763;48.524;9.044;2023-01-01T04:03:59;65.82;;;32.35;;
13386;SDS011;6763;48.524;9.044;2023-01-01T04:06:27;38.88;;;25.08;;
13386;SDS011;6763;48.524;9.044;2023-01-01T04:08:54;49.20;;;25.60;;
13386;SDS011;6763;48.524;9.044;2023-01-01T04:11:23;50.33;;;26.88;;
13386;SDS011;6763;48.524;9.044;2023-01-01T04:14:11;39.47;;;22.95;;
13386;SDS011;6763;48.524;9.044;2023-01-01T04:16:36;42.58;;;24.58;;
13386;SDS011;6763;48.524;9.044;2023-01-01T04:19:02;39.42;;;20.73;;
13386;SDS011;6763;48.524;9.044;2023-01-01T04:21:30;39.80;;;24.80;;
13386;SDS011;6763;48.524;9.044;2023-01-01T04:23:56;25.42;;;14.52;;
13386;SDS011;6763;48.524;9.044;2023-01-01T04:26:22;41.95;;;21.92;;
13386;SDS011;6763;48.524;9.044;2023-01-01T04:28:47;51.33;;;29.95;;
13386;SDS011;6763;48.524;9.044;2023-01-01T04:31:12;47.53;;;26.20;;
13386;SDS011;6763;48.524;9.044;2023-01-01T04:33:38;60.55;;;28.98;;
13386;SDS011;6763;48.524;9.044;2023-01-01T04:36:07;43.15;;;24.45;;
13386;SDS011;6763;48.524;9.044;2023-01-01T04:38:34;35.47;;;18.27;;
13386;SDS011;6763;48.524;9.044;2023-01-01T04:41:01;26.67;;;16.17;;
13386;SDS011;6763;48.524;9.044;2023-01-01T04:43:27;35.65;;;19.02;;
13386;SDS011;6763;48.524;9.044;2023-01-01T04:45:57;45.78;;;22.42;;
13386;SDS011;6763;48.524;9.044;2023-01-01T04:48:23;27.33;;;16.25;;
13386;SDS011;6763;48.524;9.044;2023-01-01T04:50:56;40.30;;;23.38;;
13386;SDS011;6763;48.524;9.044;2023-01-01T04:53:30;40.45;;;22.88;;
13386;SDS011;6763;48.524;9.044;2023-01-01T04:56:04;42.38;;;24.23;;
13386;SDS011;6763;48.524;9.044;2023-01-01T04:58:30;44.92;;;23.92;;
13386;SDS011;6763;48.524;9.044;2023-01-01T05:00:56;41.50;;;21.35;;
13386;SDS011;6763;48.524;9.044;2023-01-01T05:03:22;25.27;;;15.90;;
13386;SDS011;6763;48.524;9.044;2023-01-01T05:05:57;28.10;;;16.42;;
13386;SDS011;6763;48.524;9.044;2023-01-01T05:08:31;17.95;;;9.70;;
13386;SDS011;6763;48.524;9.044;2023-01-01T05:11:04;14.00;;;9.73;;
13386;SDS011;6763;48.524;9.044;2023-01-01T05:13:33;15.38;;;7.22;;
13386;SDS011;6763;48.524;9.044;2023-01-01T05:16:00;27.35;;;16.08;;
13386;SDS011;6763;48.524;9.044;2023-01-01T05:18:30;35.28;;;21.00;;
13386;SDS011;6763;48.524;9.044;2023-01-01T05:20:59;28.42;;;15.40;;
13386;SDS011;6763;48.524;9.044;2023-01-01T05:23:26;34.75;;;19.95;;
13386;SDS011;6763;48.524;9.044;2023-01-01T05:25:52;40.13;;;21.48;;
13386;SDS011;6763;48.524;9.044;2023-01-01T05:28:18;36.20;;;19.45;;
13386;SDS011;6763;48.524;9.044;2023-01-01T05:30:43;38.75;;;19.40;;
13386;SDS011;6763;48.524;9.044;2023-01-01T05:33:08;23.27;;;14.93;;
13386;SDS011;6763;48.524;9.044;2023-01-01T05:35:34;27.80;;;17.10;;
13386;SDS011;6763;48.524;9.044;2023-01-01T05:37:59;31.70;;;16.48;;
13386;SDS011;6763;48.524;9.044;2023-01-01T05:40:24;21.45;;;14.13;;
13386;SDS011;6763;48.524;9.044;2023-01-01T05:42:50;18.65;;;11.90;;
13386;SDS011;6763;48.524;9.044;2023-01-01T05:45:15;32.90;;;17.38;;
13386;SDS011;6763;48.524;9.044;2023-01-01T05:47:41;30.60;;;19.45;;
13386;SDS011;6763;48.524;9.044;2023-01-01T05:50:06;32.97;;;19.70;;
13386;SDS011;6763;48.524;9.044;2023-01-01T05:52:32;35.80;;;18.45;;
13386;SDS011;6763;48.524;9.044;2023-01-01T05:54:57;36.85;;;18.98;;
13386;SDS011;6763;48.524;9.044;2023-01-01T05:57:25;31.10;;;19.23;;
13386;SDS011;6763;48.524;9.044;2023-01-01T05:59:51;37.60;;;20.80;;
13386;SDS011;6763;48.524;9.044;2023-01-01T06:02:17;23.70;;;12.68;;
13386;SDS011;6763;48.524;9.044;2023-01-01T06:04:42;22.77;;;12.45;;
13386;SDS011;6763;48.524;9.044;2023-01-01T06:07:07;21.38;;;13.73;;
13386;SDS011;6763;48.524;9.044;2023-01-01T06:09:32;22.42;;;13.55;;
13386;SDS011;6763;48.524;9.044;2023-01-01T06:11:58;18.45;;;11.15;;
13386;SDS011;6763;48.524;9.044;2023-01-01T06:14:23;14.65;;;11.38;;
13386;SDS011;6763;48.524;9.044;2023-01-01T06:16:48;25.17;;;13.50;;
13386;SDS011;6763;48.524;9.044;2023-01-01T06:19:14;25.13;;;15.77;;
13386;SDS011;6763;48.524;9.044;2023-01-01T06:21:39;28.00;;;14.23;;
13386;SDS011;6763;48.524;9.044;2023-01-01T06:24:04;24.30;;;15.07;;
13386;SDS011;6763;48.524;9.044;2023-01-01T06:26:31;23.15;;;14.20;;
13386;SDS011;6763;48.524;9.044;2023-01-01T06:28:57;24.90;;;14.85;;
13386;SDS011;6763;48.524;9.044;2023-01-01T06:31:24;27.52;;;15.95;;
13386;SDS011;6763;48.524;9.044;2023-01-01T06:33:50;31.38;;;14.95;;
13386;SDS011;6763;48.524;9.044;2023-01-01T06:36:17;36.17;;;15.27;;
13386;SDS011;6763;48.524;9.044;2023-01-01T06:38:45;21.42;;;13.90;;
13386;SDS011;6763;48.524;9.044;2023-01-01T06:41:13;25.75;;;13.55;;
13386;SDS011;6763;48.524;9.044;2023-01-01T06:43:40;17.33;;;10.40;;
13386;SDS011;6763;48.524;9.044;2023-01-01T06:46:19;17.05;;;9.90;;
13386;SDS011;6763;48.524;9.044;2023-01-01T06:48:52;23.95;;;10.55;;
13386;SDS011;6763;48.524;9.044;2023-01-01T06:51:20;12.52;;;8.45;;
13386;SDS011;6763;48.524;9.044;2023-01-01T06:53:48;14.35;;;7.53;;
13386;SDS011;6763;48.524;9.044;2023-01-01T06:56:14;16.45;;;8.73;;
13386;SDS011;6763;48.524;9.044;2023-01-01T06:58:40;17.67;;;7.55;;
13386;SDS011;6763;48.524;9.044;2023-01-01T07:01:07;12.80;;;8.07;;
13386;SDS011;6763;48.524;9.044;2023-01-01T07:03:35;13.15;;;6.82;;
13386;SDS011;6763;48.524;9.044;2023-01-01T07:06:01;7.82;;;6.78;;
13386;SDS011;6763;48.524;9.044;2023-01-01T07:08:27;14.48;;;7.80;;
13386;SDS011;6763;48.524;9.044;2023-01-01T07:10:52;11.48;;;7.05;;
13386;SDS011;6763;48.524;9.044;2023-01-01T07:13:17;11.30;;;7.32;;
13386;SDS011;6763;48.524;9.044;2023-01-01T07:15:43;15.45;;;8.88;;
13386;SDS011;6763;48.524;9.044;2023-01-01T07:18:08;15.75;;;7.53;;
13386;SDS011;6763;48.524;9.044;2023-01-01T07:20:34;12.57;;;7.65;;
13386;SDS011;6763;48.524;9.044;2023-01-01T07:22:59;13.55;;;8.48;;
13386;SDS011;6763;48.524;9.044;2023-01-01T07:25:26;13.70;;;7.18;;
13386;SDS011;6763;48.524;9.044;2023-01-01T07:27:51;11.43;;;6.85;;
13386;SDS011;6763;48.524;9.044;2023-01-01T07:30:17;12.82;;;8.80;;
13386;SDS011;6763;48.524;9.044;2023-01-01T07:32:42;15.55;;;8.93;;
13386;SDS011;6763;48.524;9.044;2023-01-01T07:35:07;10.50;;;8.18;;
13386;SDS011;6763;48.524;9.044;2023-01-01T07:37:34;19.23;;;8.10;;
13386;SDS011;6763;48.524;9.044;2023-01-01T07:39:59;16.92;;;7.63;;
13386;SDS011;6763;48.524;9.044;2023-01-01T07:42:25;13.52;;;8.98;;
13386;SDS011;6763;48.524;9.044;2023-01-01T07:44:50;15.27;;;8.15;;
13386;SDS011;6763;48.524;9.044;2023-01-01T07:47:22;21.52;;;12.35;;
13386;SDS011;6763;48.524;9.044;2023-01-01T07:49:49;17.67;;;9.23;;
13386;SDS011;6763;48.524;9.044;2023-01-01T07:52:15;24.42;;;13.38;;
13386;SDS011;6763;48.524;9.044;2023-01-01T07:54:41;19.15;;;9.95;;
13386;SDS011;6763;48.524;9.044;2023-01-01T07:57:07;19.92;;;12.05;;
13386;SDS011;6763;48.524;9.044;2023-01-01T07:59:32;18.90;;;11.50;;
13386;SDS011;6763;48.524;9.044;2023-01-01T08:01:58;20.30;;;10.65;;
13386;SDS011;6763;48.524;9.044;2023-01-01T08:04:23;16.38;;;9.45;;
13386;SDS011;6763;48.524;9.044;2023-01-01T08:06:50;11.95;;;8.82;;
13386;SDS011;6763;48.524;9.044;2023-01-01T08:09:16;13.43;;;8.60;;
13386;SDS011;6763;48.524;9.044;2023-01-01T08:11:41;14.18;;;8.63;;
13386;SDS011;6763;48.524;9.044;2023-01-01T08:14:07;12.73;;;8.43;;
13386;SDS011;6763;48.524;9.044;2023-01-01T08:16:32;13.45;;;8.20;;
13386;SDS011;6763;48.524;9.044;2023-01-01T08:18:57;11.00;;;7.18;;
13386;SDS011;6763;48.524;9.044;2023-01-01T08:21:23;12.40;;;7.95;;
13386;SDS011;6763;48.524;9.044;2023-01-01T08:23:48;8.65;;;6.43;;
13386;SDS011;6763;48.524;9.044;2023-01-01T08:26:14;6.82;;;5.03;;
13386;SDS011;6763;48.524;9.044;2023-01-01T08:28:40;12.00;;;4.93;;
13386;SDS011;6763;48.524;9.044;2023-01-01T08:31:06;9.88;;;5.55;;
13386;SDS011;6763;48.524;9.044;2023-01-01T08:33:32;7.03;;;3.90;;
13386;SDS011;6763;48.524;9.044;2023-01-01T08:35:57;9.18;;;4.68;;
13386;SDS011;6763;48.524;9.044;2023-01-01T08:38:23;8.02;;;4.55;;
13386;SDS011;6763;48.524;9.044;2023-01-01T08:40:49;6.95;;;3.80;;
13386;SDS011;6763;48.524;9.044;2023-01-01T08:43:14;6.05;;;3.45;;
13386;SDS011;6763;48.524;9.044;2023-01-01T08:45:39;6.50;;;4.45;;
13386;SDS011;6763;48.524;9.044;2023-01-01T08:48:05;7.03;;;3.30;;
13386;SDS011;6763;48.524;9.044;2023-01-01T08:50:30;6.30;;;4.15;;
13386;SDS011;6763;48.524;9.044;2023-01-01T08:52:59;6.30;;;3.78;;
13386;SDS011;6763;48.524;9.044;2023-01-01T08:55:24;4.82;;;3.88;;
13386;SDS011;6763;48.524;9.044;2023-01-01T08:57:49;6.50;;;4.47;;
13386;SDS011;6763;48.524;9.044;2023-01-01T09:00:15;8.95;;;4.47;;
13386;SDS011;6763;48.524;9.044;2023-01-01T09:02:42;8.27;;;5.25;;
13386;SDS011;6763;48.524;9.044;2023-01-01T09:05:07;7.03;;;4.05;;
13386;SDS011;6763;48.524;9.044;2023-01-01T09:07:33;8.15;;;4.07;;
13386;SDS011;6763;48.524;9.044;2023-01-01T09:09:59;6.93;;;4.22;;
13386;SDS011;6763;48.524;9.044;2023-01-01T09:12:24;10.55;;;6.60;;
13386;SDS011;6763;48.524;9.044;2023-01-01T09:14:49;4.50;;;3.63;;
13386;SDS011;6763;48.524;9.044;2023-01-01T09:17:15;6.70;;;3.70;;
13386;SDS011;6763;48.524;9.044;2023-01-01T09:19:40;4.95;;;3.60;;
13386;SDS011;6763;48.524;9.044;2023-01-01T09:22:09;7.70;;;3.95;;
13386;SDS011;6763;48.524;9.044;2023-01-01T09:24:35;13.63;;;4.28;;
13386;SDS011;6763;48.524;9.044;2023-01-01T09:27:00;3.97;;;3.28;;
13386;SDS011;6763;48.524;9.044;2023-01-01T09:29:26;5.95;;;4.00;;
13386;SDS011;6763;48.524;9.044;2023-01-01T09:31:51;6.10;;;4.10;;
13386;SDS011;6763;48.524;9.044;2023-01-01T09:34:16;6.68;;;3.92;;
13386;SDS011;6763;48.524;9.044;2023-01-01T09:36:42;5.18;;;3.30;;
13386;SDS011;6763;48.524;9.044;2023-01-01T09:39:11;7.63;;;4.03;;
13386;SDS011;6763;48.524;9.044;2023-01-01T09:49:48;8.68;;;4.05;;
13386;SDS011;6763;48.524;9.044;2023-01-01T09:52:16;4.50;;;2.92;;
13386;SDS011;6763;48.524;9.044;2023-01-01T09:54:49;5.35;;;2.65;;
13386;SDS011;6763;48.524;9.044;2023-01-01T09:57:20;4.40;;;2.85;;
13386;SDS011;6763;48.524;9.044;2023-01-01T09:59:53;4.82;;;3.20;;
13386;SDS011;6763;48.524;9.044;2023-01-01T10:07:49;7.75;;;4.93;;
13386;SDS011;6763;48.524;9.044;2023-01-01T10:16:07;6.35;;;4.20;;
13386;SDS011;6763;48.524;9.044;2023-01-01T10:18:54;7.68;;;5.35;;
13386;SDS011;6763;48.524;9.044;2023-01-01T10:21:31;7.57;;;4.63;;
13386;SDS011;6763;48.524;9.044;2023-01-01T10:24:04;9.32;;;5.40;;
13386;SDS011;6763;48.524;9.044;2023-01-01T10:26:43;9.68;;;4.70;;
13386;SDS011;6763;48.524;9.044;2023-01-01T10:29:12;7.20;;;4.85;;
13386;SDS011;6763;48.524;9.044;2023-01-01T10:31:41;8.27;;;4.32;;
13386;SDS011;6763;48.524;9.044;2023-01-01T10:36:49;5.85;;;4.30;;
13386;SDS011;6763;48.524;9.044;2023-01-01T10:39:18;5.20;;;3.42;;
13386;SDS011;6763;48.524;9.044;2023-01-01T10:41:44;8.32;;;5.05;;
13386;SDS011;6763;48.524;9.044;2023-01-01T10:44:11;4.47;;;3.13;;
13386;SDS011;6763;48.524;9.044;2023-01-01T10:46:39;6.15;;;3.67;;
13386;SDS011;6763;48.524;9.044;2023-01-01T10:49:12;3.97;;;2.83;;
13386;SDS011;6763;48.524;9.044;2023-01-01T10:51:49;6.53;;;3.47;;
13386;SDS011;6763;48.524;9.044;2023-01-01T10:57:19;4.35;;;2.75;;
13386;SDS011;6763;48.524;9.044;2023-01-01T10:59:45;4.35;;;2.40;;
13386;SDS011;6763;48.524;9.044;2023-01-01T11:02:14;3.53;;;2.40;;
13386;SDS011;6763;48.524;9.044;2023-01-01T11:04:51;4.20;;;2.45;;
13386;SDS011;6763;48.524;9.044;2023-01-01T11:07:35;2.90;;;2.10;;
13386;SDS011;6763;48.524;9.044;2023-01-01T11:10:02;3.03;;;2.33;;
13386;SDS011;6763;48.524;9.044;2023-01-01T11:12:33;3.65;;;2.42;;
13386;SDS011;6763;48.524;9.044;2023-01-01T11:15:00;3.85;;;2.25;;
13386;SDS011;6763;48.524;9.044;2023-01-01T11:17:26;3.58;;;2.58;;
13386;SDS011;6763;48.524;9.044;2023-01-01T11:19:54;2.55;;;2.17;;
13386;SDS011;6763;48.524;9.044;2023-01-01T11:25:30;2.55;;;1.98;;
13386;SDS011;6763;48.524;9.044;2023-01-01T11:30:58;5.05;;;2.72;;
13386;SDS011;6763;48.524;9.044;2023-01-01T11:33:29;3.83;;;2.08;;
13386;SDS011;6763;48.524;9.044;2023-01-01T11:35:59;2.33;;;2.10;;
13386;SDS011;6763;48.524;9.044;2023-01-01T11:38:25;3.05;;;1.98;;
13386;SDS011;6763;48.524;9.044;2023-01-01T11:40:51;2.60;;;2.03;;
13386;SDS011;6763;48.524;9.044;2023-01-01T11:43:25;3.08;;;2.13;;
13386;SDS011;6763;48.524;9.044;2023-01-01T11:45:53;2.83;;;2.40;;
13386;SDS011;6763;48.524;9.044;2023-01-01T11:48:22;2.65;;;1.75;;
13386;SDS011;6763;48.524;9.044;2023-01-01T11:50:56;3.72;;;2.10;;
13386;SDS011;6763;48.524;9.044;2023-01-01T11:53:31;2.60;;;1.98;;
13386;SDS011;6763;48.524;9.044;2023-01-01T11:56:15;2.60;;;2.08;;
13386;SDS011;6763;48.524;9.044;2023-01-01T11:58:51;3.30;;;1.98;;
13386;SDS011;6763;48.524;9.044;2023-01-01T12:04:09;3.30;;;1.90;;
13386;SDS011;6763;48.524;9.044;2023-01-01T12:09:36;2.70;;;2.05;;
13386;SDS011;6763;48.524;9.044;2023-01-01T12:14:34;2.95;;;2.20;;
13386;SDS011;6763;48.524;9.044;2023-01-01T12:19:51;2.22;;;1.85;;
13386;SDS011;6763;48.524;9.044;2023-01-01T12:22:30;3.08;;;2.10;;
13386;SDS011;6763;48.524;9.044;2023-01-01T12:24:56;3.30;;;1.88;;
13386;SDS011;6763;48.524;9.044;2023-01-01T12:46:15;2.97;;;2.28;;
13386;SDS011;6763;48.524;9.044;2023-01-01T12:54:14;3.10;;;1.23;;
13386;SDS011;6763;48.524;9.044;2023-01-01T12:56:52;1.80;;;1.48;;
13386;SDS011;6763;48.524;9.044;2023-01-01T12:59:32;2.75;;;1.10;;
13386;SDS011;6763;48.524;9.044;2023-01-01T13:02:09;2.85;;;1.40;;
13386;SDS011;6763;48.524;9.044;2023-01-01T13:04:46;2.08;;;1.75;;
13386;SDS011;6763;48.524;9.044;2023-01-01T13:07:15;2.30;;;1.77;;
13386;SDS011;6763;48.524;9.044;2023-01-01T13:09:49;2.30;;;1.70;;
13386;SDS011;6763;48.524;9.044;2023-01-01T13:12:16;3.35;;;2.60;;
13386;SDS011;6763;48.524;9.044;2023-01-01T13:14:44;1.52;;;1.13;;
13386;SDS011;6763;48.524;9.044;2023-01-01T13:17:18;1.35;;;1.20;;
13386;SDS011;6763;48.524;9.044;2023-01-01T13:19:51;2.20;;;1.30;;
13386;SDS011;6763;48.524;9.044;2023-01-01T13:38:50;1.38;;;1.10;;
13386;SDS011;6763;48.524;9.044;2023-01-01T14:00:59;2.83;;;1.20;;
13386;SDS011;6763;48.524;9.044;2023-01-01T14:03:46;2.20;;;2.00;;
13386;SDS011;6763;48.524;9.044;2023-01-01T14:06:15;2.50;;;1.73;;
13386;SDS011;6763;48.524;9.044;2023-01-01T14:08:59;1.88;;;1.52;;
13386;SDS011;6763;48.524;9.044;2023-01-01T14:11:26;2.28;;;1.70;;
13386;SDS011;6763;48.524;9.044;2023-01-01T14:13:53;2.47;;;1.60;;
13386;SDS011;6763;48.524;9.044;2023-01-01T14:16:18;1.88;;;1.60;;
13386;SDS011;6763;48.524;9.044;2023-01-01T14:18:45;2.28;;;1.30;;
13386;SDS011;6763;48.524;9.044;2023-01-01T14:21:16;2.20;;;1.42;;
13386;SDS011;6763;48.524;9.044;2023-01-01T14:23:56;1.50;;;1.20;;
13386;SDS011;6763;48.524;9.044;2023-01-01T14:26:25;0.90;;;0.90;;
13386;SDS011;6763;48.524;9.044;2023-01-01T14:28:55;1.45;;;1.02;;
13386;SDS011;6763;48.524;9.044;2023-01-01T14:31:26;1.52;;;1.30;;
13386;SDS011;6763;48.524;9.044;2023-01-01T14:33:55;2.70;;;1.35;;
13386;SDS011;6763;48.524;9.044;2023-01-01T14:38:46;2.03;;;1.38;;
13386;SDS011;6763;48.524;9.044;2023-01-01T14:43:52;2.28;;;1.75;;
13386;SDS011;6763;48.524;9.044;2023-01-01T14:46:22;2.28;;;1.63;;
13386;SDS011;6763;48.524;9.044;2023-01-01T14:48:50;3.55;;;1.92;;
13386;SDS011;6763;48.524;9.044;2023-01-01T14:51:22;2.80;;;1.50;;
13386;SDS011;6763;48.524;9.044;2023-01-01T14:53:54;2.30;;;1.65;;
13386;SDS011;6763;48.524;9.044;2023-01-01T14:56:22;3.30;;;1.70;;
13386;SDS011;6763;48.524;9.044;2023-01-01T15:01:33;2.35;;;1.38;;
13386;SDS011;6763;48.524;9.044;2023-01-01T15:04:00;6.57;;;1.52;;
13386;SDS011;6763;48.524;9.044;2023-01-01T15:06:28;4.72;;;1.80;;
13386;SDS011;6763;48.524;9.044;2023-01-01T15:08:54;5.55;;;2.05;;
13386;SDS011;6763;48.524;9.044;2023-01-01T15:11:20;5.20;;;2.60;;
13386;SDS011;6763;48.524;9.044;2023-01-01T15:13:57;3.10;;;1.92;;
13386;SDS011;6763;48.524;9.044;2023-01-01T15:16:24;3.05;;;2.53;;
13386;SDS011;6763;48.524;9.044;2023-01-01T15:18:51;3.90;;;2.40;;
13386;SDS011;6763;48.524;9.044;2023-01-01T15:23:56;3.58;;;2.53;;
13386;SDS011;6763;48.524;9.044;2023-01-01T15:27:18;4.45;;;2.28;;
13386;SDS011;6763;48.524;9.044;2023-01-01T15:29:15;2.38;;;1.80;;
13386;SDS011;6763;48.524;9.044;2023-01-01T15:31:48;2.88;;;2.50;;
13386;SDS011;6763;48.524;9.044;2023-01-01T15:34:22;4.00;;;2.53;;
13386;SDS011;6763;48.524;9.044;2023-01-01T15:36:54;5.18;;;2.53;;
13386;SDS011;6763;48.524;9.044;2023-01-01T15:39:28;5.57;;;3.15;;
13386;SDS011;6763;48.524;9.044;2023-01-01T15:41:55;5.20;;;3.72;;
13386;SDS011;6763;48.524;9.044;2023-01-01T15:44:25;5.68;;;2.95;;
13386;SDS011;6763;48.524;9.044;2023-01-01T15:47:04;4.93;;;2.75;;
13386;SDS011;6763;48.524;9.044;2023-01-01T15:49:36;3.20;;;2.78;;
13386;SDS011;6763;48.524;9.044;2023-01-01T15:52:02;2.20;;;1.90;;
13386;SDS011;6763;48.524;9.044;2023-01-01T15:54:31;2.20;;;1.63;;
13386;SDS011;6763;48.524;9.044;2023-01-01T15:57:01;4.80;;;1.85;;
13386;SDS011;6763;48.524;9.044;2023-01-01T15:59:27;2.67;;;1.55;;
13386;SDS011;6763;48.524;9.044;2023-01-01T16:02:06;1.88;;;1.40;;
13386;SDS011;6763;48.524;9.044;2023-01-01T16:04:48;4.07;;;2.30;;
13386;SDS011;6763;48.524;9.044;2023-01-01T16:07:21;2.50;;;1.65;;
13386;SDS011;6763;48.524;9.044;2023-01-01T16:09:48;2.45;;;1.95;;
13386;SDS011;6763;48.524;9.044;2023-01-01T16:12:14;3.17;;;2.25;;
13386;SDS011;6763;48.524;9.044;2023-01-01T16:14:40;5.28;;;2.33;;
13386;SDS011;6763;48.524;9.044;2023-01-01T16:17:05;2.65;;;1.65;;
13386;SDS011;6763;48.524;9.044;2023-01-01T16:19:34;3.05;;;2.03;;
13386;SDS011;6763;48.524;9.044;2023-01-01T16:21:59;3.10;;;1.60;;
13386;SDS011;6763;48.524;9.044;2023-01-01T16:24:24;4.35;;;2.20;;
13386;SDS011;6763;48.524;9.044;2023-01-01T16:26:50;4.25;;;1.88;;
13386;SDS011;6763;48.524;9.044;2023-01-01T16:29:15;4.75;;;2.22;;
13386;SDS011;6763;48.524;9.044;2023-01-01T16:31:41;4.13;;;2.35;;
13386;SDS011;6763;48.524;9.044;2023-01-01T16:34:09;4.18;;;2.65;;
13386;SDS011;6763;48.524;9.044;2023-01-01T16:36:37;6.00;;;2.85;;
13386;SDS011;6763;48.524;9.044;2023-01-01T16:39:02;8.50;;;5.65;;
13386;SDS011;6763;48.524;9.044;2023-01-01T16:41:27;8.30;;;4.53;;
13386;SDS011;6763;48.524;9.044;2023-01-01T16:43:54;5.32;;;3.58;;
13386;SDS011;6763;48.524;9.044;2023-01-01T16:46:19;8.30;;;3.58;;
13386;SDS011;6763;48.524;9.044;2023-01-01T16:48:45;8.32;;;3.30;;
13386;SDS011;6763;48.524;9.044;2023-01-01T16:51:15;13.88;;;5.13;;
13386;SDS011;6763;48.524;9.044;2023-01-01T16:53:46;8.88;;;4.60;;
13386;SDS011;6763;48.524;9.044;2023-01-01T16:56:13;8.65;;;4.60;;
13386;SDS011;6763;48.524;9.044;2023-01-01T16:58:39;7.15;;;4.05;;
13386;SDS011;6763;48.524;9.044;2023-01-01T17:01:04;3.90;;;3.13;;
13386;SDS011;6763;48.524;9.044;2023-01-01T17:03:30;5.72;;;2.60;;
13386;SDS011;6763;48.524;9.044;2023-01-01T17:05:55;7.68;;;3.45;;
13386;SDS011;6763;48.524;9.044;2023-01-01T17:08:21;10.05;;;4.50;;
13386;SDS011;6763;48.524;9.044;2023-01-01T17:10:46;5.80;;;4.05;;